sensor_id;sensor_type;location;lat;lon;timestamp;P1;durP1;ratioP1;P2;durP2;ratioP2
41059;SDS011;26811;53.160;8.202;2023-03-01T00:04:33;54.70;;;24.73;;
41059;SDS011;26811;53.160;8.202;2023-03-01T00:09:36;51.15;;;24.13;;
41059;SDS011;26811;53.160;8.202;2023-03-01T00:14:37;53.88;;;25.50;;
41059;SDS011;26811;53.160;8.202;2023-03-01T00:19:37;51.92;;;24.98;;
41059;SDS011;26811;53.160;8.202;2023-03-01T00:24:38;60.38;;;26.20;;
41059;SDS011;26811;53.160;8.202;2023-03-01T00:29:38;54.67;;;25.95;;
41059;SDS011;26811;53.160;8.202;2023-03-01T00:34:39;57.38;;;27.02;;
41059;SDS011;26811;53.160;8.202;2023-03-01T00:39:39;59.75;;;25.45;;
41059;SDS011;26811;53.160;8.202;2023-03-01T00:44:40;61.42;;;26.40;;
41059;SDS011;26811;53.160;8.202;2023-03-01T00:49:40;55.97;;;25.73;;
41059;SDS011;26811;53.160;8.202;2023-03-01T00:54:41;55.60;;;26.00;;
41059;SDS011;26811;53.160;8.202;2023-03-01T00:59:41;59.72;;;26.00;;
41059;SDS011;26811;53.160;8.202;2023-03-01T01:04:42;60.65;;;26.60;;
41059;SDS011;26811;53.160;8.202;2023-03-01T01:09:42;58.20;;;27.38;;
41059;SDS011;26811;53.160;8.202;2023-03-01T01:14:43;59.45;;;25.08;;
41059;SDS011;26811;53.160;8.202;2023-03-01T01:19:44;56.28;;;25.38;;
41059;SDS011;26811;53.160;8.202;2023-03-01T01:24:44;56.67;;;25.70;;
41059;SDS011;26811;53.160;8.202;2023-03-01T01:29:45;52.95;;;24.77;;
41059;SDS011;26811;53.160;8.202;2023-03-01T01:34:45;51.97;;;24.65;;
41059;SDS011;26811;53.160;8.202;2023-03-01T01:39:46;53.70;;;25.25;;
41059;SDS011;26811;53.160;8.202;2023-03-01T01:44:47;48.70;;;23.70;;
41059;SDS011;26811;53.160;8.202;2023-03-01T01:49:51;49.45;;;24.02;;
41059;SDS011;26811;53.160;8.202;2023-03-01T01:54:59;52.05;;;23.75;;
41059;SDS011;26811;53.160;8.202;2023-03-01T02:00:06;50.83;;;24.55;;
41059;SDS011;26811;53.160;8.202;2023-03-01T02:05:20;51.58;;;22.98;;
41059;SDS011;26811;53.160;8.202;2023-03-01T02:10:26;50.83;;;24.05;;
41059;SDS011;26811;53.160;8.202;2023-03-01T02:15:31;55.33;;;25.13;;
41059;SDS011;26811;53.160;8.202;2023-03-01T02:26:01;54.75;;;24.13;;
41059;SDS011;26811;53.160;8.202;2023-03-01T02:31:09;52.80;;;24.70;;
41059;SDS011;26811;53.160;8.202;2023-03-01T02:36:37;48.03;;;22.88;;
41059;SDS011;26811;53.160;8.202;2023-03-01T02:41:48;52.40;;;24.00;;
41059;SDS011;26811;53.160;8.202;2023-03-01T02:46:52;52.08;;;25.02;;
41059;SDS011;26811;53.160;8.202;2023-03-01T02:57:18;52.07;;;23.57;;
41059;SDS011;26811;53.160;8.202;2023-03-01T03:02:20;51.95;;;24.83;;
41059;SDS011;26811;53.160;8.202;2023-03-01T03:07:39;51.65;;;24.63;;
41059;SDS011;26811;53.160;8.202;2023-03-01T03:12:41;61.15;;;27.38;;
41059;SDS011;26811;53.160;8.202;2023-03-01T03:17:42;64.97;;;27.67;;
41059;SDS011;26811;53.160;8.202;2023-03-01T03:22:42;55.75;;;26.92;;
41059;SDS011;26811;53.160;8.202;2023-03-01T03:27:44;55.30;;;25.58;;
41059;SDS011;26811;53.160;8.202;2023-03-01T03:32:46;52.75;;;25.75;;
41059;SDS011;26811;53.160;8.202;2023-03-01T03:37:53;49.92;;;24.73;;
41059;SDS011;26811;53.160;8.202;2023-03-01T03:43:04;49.47;;;23.08;;
41059;SDS011;26811;53.160;8.202;2023-03-01T03:48:07;46.63;;;23.38;;
41059;SDS011;26811;53.160;8.202;2023-03-01T03:53:10;52.83;;;24.53;;
41059;SDS011;26811;53.160;8.202;2023-03-01T03:58:12;49.70;;;23.00;;
41059;SDS011;26811;53.160;8.202;2023-03-01T04:03:13;49.20;;;24.30;;
41059;SDS011;26811;53.160;8.202;2023-03-01T04:08:15;47.88;;;23.13;;
41059;SDS011;26811;53.160;8.202;2023-03-01T04:13:20;50.60;;;24.15;;
41059;SDS011;26811;53.160;8.202;2023-03-01T04:18:22;60.28;;;24.35;;
41059;SDS011;26811;53.160;8.202;2023-03-01T04:23:25;54.17;;;24.75;;
41059;SDS011;26811;53.160;8.202;2023-03-01T04:33:36;51.67;;;23.10;;
41059;SDS011;26811;53.160;8.202;2023-03-01T04:38:37;45.42;;;23.27;;
41059;SDS011;26811;53.160;8.202;2023-03-01T04:43:38;51.08;;;22.08;;
41059;SDS011;26811;53.160;8.202;2023-03-01T04:48:39;53.25;;;23.63;;
41059;SDS011;26811;53.160;8.202;2023-03-01T04:53:41;48.13;;;22.67;;
41059;SDS011;26811;53.160;8.202;2023-03-01T04:58:42;46.10;;;22.92;;
41059;SDS011;26811;53.160;8.202;2023-03-01T05:03:44;51.35;;;23.55;;
41059;SDS011;26811;53.160;8.202;2023-03-01T05:08:46;45.33;;;21.52;;
41059;SDS011;26811;53.160;8.202;2023-03-01T05:13:47;47.08;;;23.25;;
41059;SDS011;26811;53.160;8.202;2023-03-01T05:18:51;47.10;;;22.42;;
41059;SDS011;26811;53.160;8.202;2023-03-01T05:23:57;47.38;;;22.98;;
41059;SDS011;26811;53.160;8.202;2023-03-01T05:28:58;51.03;;;24.65;;
41059;SDS011;26811;53.160;8.202;2023-03-01T05:33:58;50.03;;;24.63;;
41059;SDS011;26811;53.160;8.202;2023-03-01T05:38:59;54.15;;;24.55;;
41059;SDS011;26811;53.160;8.202;2023-03-01T05:43:59;46.53;;;22.80;;
41059;SDS011;26811;53.160;8.202;2023-03-01T05:49:00;53.17;;;24.33;;
41059;SDS011;26811;53.160;8.202;2023-03-01T05:54:02;52.45;;;25.33;;
41059;SDS011;26811;53.160;8.202;2023-03-01T05:59:05;52.78;;;23.23;;
41059;SDS011;26811;53.160;8.202;2023-03-01T06:04:06;48.25;;;23.00;;
41059;SDS011;26811;53.160;8.202;2023-03-01T06:09:07;54.40;;;23.90;;
41059;SDS011;26811;53.160;8.202;2023-03-01T06:14:09;51.15;;;24.52;;
41059;SDS011;26811;53.160;8.202;2023-03-01T06:19:10;47.08;;;21.92;;
41059;SDS011;26811;53.160;8.202;2023-03-01T06:24:10;49.63;;;23.52;;
41059;SDS011;26811;53.160;8.202;2023-03-01T06:29:11;50.42;;;24.08;;
41059;SDS011;26811;53.160;8.202;2023-03-01T06:34:11;51.45;;;23.85;;
41059;SDS011;26811;53.160;8.202;2023-03-01T06:39:13;50.40;;;23.08;;
41059;SDS011;26811;53.160;8.202;2023-03-01T06:44:14;46.33;;;23.38;;
41059;SDS011;26811;53.160;8.202;2023-03-01T06:49:14;49.88;;;23.85;;
41059;SDS011;26811;53.160;8.202;2023-03-01T06:54:16;52.58;;;23.55;;
41059;SDS011;26811;53.160;8.202;2023-03-01T06:59:18;58.00;;;25.50;;
41059;SDS011;26811;53.160;8.202;2023-03-01T07:04:18;51.80;;;25.52;;
41059;SDS011;26811;53.160;8.202;2023-03-01T07:09:19;55.25;;;24.83;;
41059;SDS011;26811;53.160;8.202;2023-03-01T07:14:21;50.58;;;24.88;;
41059;SDS011;26811;53.160;8.202;2023-03-01T07:19:24;55.55;;;25.45;;
41059;SDS011;26811;53.160;8.202;2023-03-01T07:24:25;51.85;;;26.58;;
41059;SDS011;26811;53.160;8.202;2023-03-01T07:29:25;53.00;;;25.45;;
41059;SDS011;26811;53.160;8.202;2023-03-01T07:34:26;51.97;;;25.00;;
41059;SDS011;26811;53.160;8.202;2023-03-01T07:39:26;54.20;;;24.88;;
41059;SDS011;26811;53.160;8.202;2023-03-01T07:44:27;53.83;;;23.65;;
41059;SDS011;26811;53.160;8.202;2023-03-01T07:49:28;49.90;;;24.33;;
41059;SDS011;26811;53.160;8.202;2023-03-01T07:54:28;43.30;;;22.33;;
41059;SDS011;26811;53.160;8.202;2023-03-01T07:59:29;45.88;;;23.23;;
41059;SDS011;26811;53.160;8.202;2023-03-01T08:04:29;41.03;;;21.25;;
41059;SDS011;26811;53.160;8.202;2023-03-01T08:09:30;44.47;;;22.77;;
41059;SDS011;26811;53.160;8.202;2023-03-01T08:14:31;44.22;;;22.88;;
41059;SDS011;26811;53.160;8.202;2023-03-01T08:19:32;40.15;;;21.83;;
41059;SDS011;26811;53.160;8.202;2023-03-01T08:24:34;41.17;;;21.00;;
41059;SDS011;26811;53.160;8.202;2023-03-01T08:29:35;39.88;;;22.02;;
41059;SDS011;26811;53.160;8.202;2023-03-01T08:34:35;35.20;;;21.05;;
41059;SDS011;26811;53.160;8.202;2023-03-01T08:39:36;39.15;;;20.27;;
41059;SDS011;26811;53.160;8.202;2023-03-01T08:44:36;34.22;;;19.33;;
41059;SDS011;26811;53.160;8.202;2023-03-01T08:49:37;35.05;;;20.02;;
41059;SDS011;26811;53.160;8.202;2023-03-01T08:54:37;31.02;;;16.85;;
41059;SDS011;26811;53.160;8.202;2023-03-01T08:59:38;29.38;;;17.17;;
41059;SDS011;26811;53.160;8.202;2023-03-01T09:04:39;27.92;;;15.90;;
41059;SDS011;26811;53.160;8.202;2023-03-01T09:09:39;28.00;;;14.88;;
41059;SDS011;26811;53.160;8.202;2023-03-01T09:14:40;27.13;;;14.60;;
41059;SDS011;26811;53.160;8.202;2023-03-01T09:19:41;27.98;;;15.20;;
41059;SDS011;26811;53.160;8.202;2023-03-01T09:24:42;20.90;;;13.90;;
41059;SDS011;26811;53.160;8.202;2023-03-01T09:29:42;21.63;;;12.63;;
41059;SDS011;26811;53.160;8.202;2023-03-01T09:34:46;20.42;;;12.35;;
41059;SDS011;26811;53.160;8.202;2023-03-01T09:40:04;18.17;;;9.80;;
41059;SDS011;26811;53.160;8.202;2023-03-01T09:45:07;16.57;;;9.60;;
41059;SDS011;26811;53.160;8.202;2023-03-01T09:50:19;15.82;;;8.82;;
41059;SDS011;26811;53.160;8.202;2023-03-01T09:55:25;12.68;;;7.22;;
41059;SDS011;26811;53.160;8.202;2023-03-01T10:00:42;14.40;;;8.95;;
41059;SDS011;26811;53.160;8.202;2023-03-01T10:06:26;16.60;;;8.77;;
41059;SDS011;26811;53.160;8.202;2023-03-01T10:11:30;11.77;;;7.65;;
41059;SDS011;26811;53.160;8.202;2023-03-01T10:16:37;15.85;;;8.32;;
41059;SDS011;26811;53.160;8.202;2023-03-01T10:21:46;14.60;;;7.50;;
41059;SDS011;26811;53.160;8.202;2023-03-01T10:26:50;15.38;;;8.18;;
41059;SDS011;26811;53.160;8.202;2023-03-01T10:31:56;13.48;;;8.32;;
41059;SDS011;26811;53.160;8.202;2023-03-01T10:36:57;15.25;;;9.02;;
41059;SDS011;26811;53.160;8.202;2023-03-01T10:42:18;13.82;;;8.65;;
41059;SDS011;26811;53.160;8.202;2023-03-01T10:47:24;13.57;;;7.38;;
41059;SDS011;26811;53.160;8.202;2023-03-01T10:52:28;14.80;;;8.15;;
41059;SDS011;26811;53.160;8.202;2023-03-01T10:57:32;13.70;;;8.57;;
41059;SDS011;26811;53.160;8.202;2023-03-01T11:02:36;16.08;;;9.52;;
41059;SDS011;26811;53.160;8.202;2023-03-01T11:13:14;18.70;;;9.93;;
41059;SDS011;26811;53.160;8.202;2023-03-01T11:18:20;23.20;;;11.30;;
41059;SDS011;26811;53.160;8.202;2023-03-01T11:23:22;17.23;;;10.57;;
41059;SDS011;26811;53.160;8.202;2023-03-01T11:28:23;18.58;;;10.85;;
41059;SDS011;26811;53.160;8.202;2023-03-01T11:33:34;22.70;;;11.07;;
41059;SDS011;26811;53.160;8.202;2023-03-01T11:38:45;22.38;;;11.73;;
41059;SDS011;26811;53.160;8.202;2023-03-01T11:43:49;20.15;;;12.27;;
41059;SDS011;26811;53.160;8.202;2023-03-01T11:49:10;23.58;;;13.60;;
41059;SDS011;26811;53.160;8.202;2023-03-01T12:04:51;23.35;;;13.88;;
41059;SDS011;26811;53.160;8.202;2023-03-01T12:10:22;23.02;;;13.68;;
41059;SDS011;26811;53.160;8.202;2023-03-01T12:15:36;26.83;;;14.48;;
41059;SDS011;26811;53.160;8.202;2023-03-01T12:26:34;28.45;;;14.85;;
41059;SDS011;26811;53.160;8.202;2023-03-01T12:41:58;26.33;;;14.30;;
41059;SDS011;26811;53.160;8.202;2023-03-01T12:52:41;23.80;;;13.30;;
41059;SDS011;26811;53.160;8.202;2023-03-01T12:57:47;27.83;;;12.55;;
41059;SDS011;26811;53.160;8.202;2023-03-01T13:13:47;27.30;;;13.32;;
41059;SDS011;26811;53.160;8.202;2023-03-01T13:18:48;27.02;;;13.93;;
41059;SDS011;26811;53.160;8.202;2023-03-01T13:23:49;25.55;;;15.18;;
41059;SDS011;26811;53.160;8.202;2023-03-01T13:28:50;24.25;;;13.90;;
41059;SDS011;26811;53.160;8.202;2023-03-01T13:33:53;24.20;;;14.02;;
41059;SDS011;26811;53.160;8.202;2023-03-01T13:43:59;25.40;;;14.75;;
41059;SDS011;26811;53.160;8.202;2023-03-01T13:49:00;24.55;;;14.25;;
41059;SDS011;26811;53.160;8.202;2023-03-01T13:54:01;25.27;;;14.38;;
41059;SDS011;26811;53.160;8.202;2023-03-01T13:59:02;27.73;;;14.50;;
41059;SDS011;26811;53.160;8.202;2023-03-01T14:04:23;26.92;;;13.98;;
41059;SDS011;26811;53.160;8.202;2023-03-01T14:09:30;26.25;;;14.52;;
41059;SDS011;26811;53.160;8.202;2023-03-01T14:20:12;21.70;;;13.82;;
41059;SDS011;26811;53.160;8.202;2023-03-01T14:30:35;24.73;;;13.77;;
41059;SDS011;26811;53.160;8.202;2023-03-01T14:35:39;26.83;;;14.93;;
41059;SDS011;26811;53.160;8.202;2023-03-01T14:40:40;25.25;;;14.68;;
41059;SDS011;26811;53.160;8.202;2023-03-01T14:45:42;25.90;;;15.20;;
41059;SDS011;26811;53.160;8.202;2023-03-01T14:50:48;26.27;;;15.52;;
41059;SDS011;26811;53.160;8.202;2023-03-01T14:55:59;28.98;;;16.60;;
41059;SDS011;26811;53.160;8.202;2023-03-01T15:01:04;31.15;;;17.42;;
41059;SDS011;26811;53.160;8.202;2023-03-01T15:06:05;29.67;;;17.60;;
41059;SDS011;26811;53.160;8.202;2023-03-01T15:16:23;33.10;;;18.23;;
41059;SDS011;26811;53.160;8.202;2023-03-01T15:21:27;32.00;;;17.83;;
41059;SDS011;26811;53.160;8.202;2023-03-01T15:26:41;29.17;;;17.33;;
41059;SDS011;26811;53.160;8.202;2023-03-01T15:31:52;33.08;;;17.20;;
41059;SDS011;26811;53.160;8.202;2023-03-01T15:36:58;35.45;;;19.17;;
41059;SDS011;26811;53.160;8.202;2023-03-01T15:42:01;32.75;;;18.58;;
41059;SDS011;26811;53.160;8.202;2023-03-01T15:47:20;32.42;;;18.95;;
41059;SDS011;26811;53.160;8.202;2023-03-01T15:52:29;35.23;;;19.93;;
41059;SDS011;26811;53.160;8.202;2023-03-01T15:57:39;34.33;;;18.38;;
41059;SDS011;26811;53.160;8.202;2023-03-01T16:02:40;33.58;;;18.88;;
41059;SDS011;26811;53.160;8.202;2023-03-01T16:07:41;34.33;;;19.25;;
41059;SDS011;26811;53.160;8.202;2023-03-01T16:12:42;35.15;;;19.05;;
41059;SDS011;26811;53.160;8.202;2023-03-01T16:17:42;36.83;;;19.17;;
41059;SDS011;26811;53.160;8.202;2023-03-01T16:22:43;39.45;;;19.90;;
41059;SDS011;26811;53.160;8.202;2023-03-01T16:27:46;36.53;;;19.67;;
41059;SDS011;26811;53.160;8.202;2023-03-01T16:32:48;38.03;;;20.23;;
41059;SDS011;26811;53.160;8.202;2023-03-01T16:37:50;38.50;;;19.10;;
41059;SDS011;26811;53.160;8.202;2023-03-01T16:42:53;38.20;;;18.77;;
41059;SDS011;26811;53.160;8.202;2023-03-01T16:47:55;39.08;;;21.17;;
41059;SDS011;26811;53.160;8.202;2023-03-01T16:52:56;42.70;;;21.00;;
41059;SDS011;26811;53.160;8.202;2023-03-01T16:57:56;38.33;;;21.33;;
41059;SDS011;26811;53.160;8.202;2023-03-01T17:02:57;36.70;;;19.85;;
41059;SDS011;26811;53.160;8.202;2023-03-01T17:07:57;34.08;;;18.73;;
41059;SDS011;26811;53.160;8.202;2023-03-01T17:12:59;33.50;;;18.60;;
41059;SDS011;26811;53.160;8.202;2023-03-01T17:18:01;37.80;;;19.60;;
41059;SDS011;26811;53.160;8.202;2023-03-01T17:23:03;29.20;;;17.60;;
41059;SDS011;26811;53.160;8.202;2023-03-01T17:28:03;38.10;;;20.40;;
41059;SDS011;26811;53.160;8.202;2023-03-01T17:33:04;31.75;;;17.35;;
41059;SDS011;26811;53.160;8.202;2023-03-01T17:38:05;33.78;;;18.13;;
41059;SDS011;26811;53.160;8.202;2023-03-01T17:43:06;34.50;;;17.77;;
41059;SDS011;26811;53.160;8.202;2023-03-01T17:48:07;31.67;;;17.08;;
41059;SDS011;26811;53.160;8.202;2023-03-01T17:53:08;33.85;;;17.55;;
41059;SDS011;26811;53.160;8.202;2023-03-01T17:58:09;35.88;;;16.77;;
41059;SDS011;26811;53.160;8.202;2023-03-01T18:03:12;31.67;;;16.77;;
41059;SDS011;26811;53.160;8.202;2023-03-01T18:08:12;40.30;;;17.50;;
41059;SDS011;26811;53.160;8.202;2023-03-01T18:13:13;36.22;;;16.63;;
41059;SDS011;26811;53.160;8.202;2023-03-01T18:18:13;34.97;;;16.52;;
41059;SDS011;26811;53.160;8.202;2023-03-01T18:23:14;36.15;;;17.35;;
41059;SDS011;26811;53.160;8.202;2023-03-01T18:28:14;39.55;;;18.10;;
41059;SDS011;26811;53.160;8.202;2023-03-01T18:33:15;34.75;;;17.25;;
41059;SDS011;26811;53.160;8.202;2023-03-01T18:38:16;39.70;;;17.10;;
41059;SDS011;26811;53.160;8.202;2023-03-01T18:43:16;35.63;;;17.15;;
41059;SDS011;26811;53.160;8.202;2023-03-01T18:48:17;38.50;;;17.83;;
41059;SDS011;26811;53.160;8.202;2023-03-01T18:53:17;38.72;;;17.95;;
41059;SDS011;26811;53.160;8.202;2023-03-01T18:58:18;37.35;;;17.17;;
41059;SDS011;26811;53.160;8.202;2023-03-01T19:03:19;34.83;;;17.58;;
41059;SDS011;26811;53.160;8.202;2023-03-01T19:08:19;37.78;;;16.83;;
41059;SDS011;26811;53.160;8.202;2023-03-01T19:13:20;35.63;;;16.55;;
41059;SDS011;26811;53.160;8.202;2023-03-01T19:18:20;35.42;;;16.42;;
41059;SDS011;26811;53.160;8.202;2023-03-01T19:23:21;32.55;;;15.88;;
41059;SDS011;26811;53.160;8.202;2023-03-01T19:28:21;36.20;;;16.63;;
41059;SDS011;26811;53.160;8.202;2023-03-01T19:33:21;33.90;;;14.88;;
41059;SDS011;26811;53.160;8.202;2023-03-01T19:38:22;29.52;;;14.80;;
41059;SDS011;26811;53.160;8.202;2023-03-01T19:43:23;30.75;;;14.40;;
41059;SDS011;26811;53.160;8.202;2023-03-01T19:48:24;29.60;;;14.02;;
41059;SDS011;26811;53.160;8.202;2023-03-01T19:53:24;31.15;;;14.70;;
41059;SDS011;26811;53.160;8.202;2023-03-01T19:58:26;27.70;;;13.77;;
41059;SDS011;26811;53.160;8.202;2023-03-01T20:03:32;30.65;;;14.48;;
41059;SDS011;26811;53.160;8.202;2023-03-01T20:08:34;31.33;;;15.05;;
41059;SDS011;26811;53.160;8.202;2023-03-01T20:13:34;34.15;;;14.77;;
41059;SDS011;26811;53.160;8.202;2023-03-01T20:18:35;28.27;;;13.98;;
41059;SDS011;26811;53.160;8.202;2023-03-01T20:23:36;32.28;;;14.98;;
41059;SDS011;26811;53.160;8.202;2023-03-01T20:28:36;33.25;;;14.50;;
41059;SDS011;26811;53.160;8.202;2023-03-01T20:33:37;33.00;;;15.55;;
41059;SDS011;26811;53.160;8.202;2023-03-01T20:38:38;40.67;;;17.15;;
41059;SDS011;26811;53.160;8.202;2023-03-01T20:43:39;45.47;;;18.20;;
41059;SDS011;26811;53.160;8.202;2023-03-01T20:48:41;50.25;;;18.75;;
41059;SDS011;26811;53.160;8.202;2023-03-01T20:53:42;55.50;;;19.63;;
41059;SDS011;26811;53.160;8.202;2023-03-01T20:58:42;64.80;;;21.30;;
41059;SDS011;26811;53.160;8.202;2023-03-01T21:03:43;65.72;;;21.95;;
41059;SDS011;26811;53.160;8.202;2023-03-01T21:08:44;67.38;;;22.10;;
41059;SDS011;26811;53.160;8.202;2023-03-01T21:13:44;66.78;;;23.25;;
41059;SDS011;26811;53.160;8.202;2023-03-01T21:18:46;81.07;;;25.58;;
41059;SDS011;26811;53.160;8.202;2023-03-01T21:23:46;80.68;;;26.25;;
41059;SDS011;26811;53.160;8.202;2023-03-01T21:28:48;81.07;;;25.75;;
41059;SDS011;26811;53.160;8.202;2023-03-01T21:33:54;85.35;;;26.08;;
41059;SDS011;26811;53.160;8.202;2023-03-01T21:38:57;80.03;;;25.48;;
41059;SDS011;26811;53.160;8.202;2023-03-01T21:43:59;83.45;;;25.92;;
41059;SDS011;26811;53.160;8.202;2023-03-01T21:54:03;85.35;;;25.65;;
41059;SDS011;26811;53.160;8.202;2023-03-01T21:59:06;74.82;;;24.65;;
41059;SDS011;26811;53.160;8.202;2023-03-01T22:04:12;82.00;;;25.05;;
41059;SDS011;26811;53.160;8.202;2023-03-01T22:09:14;74.20;;;24.67;;
41059;SDS011;26811;53.160;8.202;2023-03-01T22:14:17;82.30;;;24.80;;
41059;SDS011;26811;53.160;8.202;2023-03-01T22:19:18;72.85;;;23.42;;
41059;SDS011;26811;53.160;8.202;2023-03-01T22:24:21;71.45;;;23.42;;
41059;SDS011;26811;53.160;8.202;2023-03-01T22:34:26;70.25;;;23.33;;
41059;SDS011;26811;53.160;8.202;2023-03-01T22:39:26;70.38;;;23.80;;
41059;SDS011;26811;53.160;8.202;2023-03-01T22:44:27;81.03;;;25.83;;
41059;SDS011;26811;53.160;8.202;2023-03-01T22:49:28;79.28;;;25.17;;
41059;SDS011;26811;53.160;8.202;2023-03-01T22:54:28;83.78;;;25.15;;
41059;SDS011;26811;53.160;8.202;2023-03-01T22:59:29;71.35;;;23.25;;
41059;SDS011;26811;53.160;8.202;2023-03-01T23:04:29;74.10;;;24.52;;
41059;SDS011;26811;53.160;8.202;2023-03-01T23:09:31;71.05;;;22.85;;
41059;SDS011;26811;53.160;8.202;2023-03-01T23:14:33;65.23;;;23.50;;
41059;SDS011;26811;53.160;8.202;2023-03-01T23:19:34;67.53;;;22.40;;
41059;SDS011;26811;53.160;8.202;2023-03-01T23:24:35;66.97;;;23.00;;
41059;SDS011;26811;53.160;8.202;2023-03-01T23:29:35;59.45;;;22.40;;
41059;SDS011;26811;53.160;8.202;2023-03-01T23:34:36;57.50;;;22.35;;
41059;SDS011;26811;53.160;8.202;2023-03-01T23:39:37;49.08;;;20.48;;
41059;SDS011;26811;53.160;8.202;2023-03-01T23:44:39;60.28;;;21.60;;
41059;SDS011;26811;53.160;8.202;2023-03-01T23:49:40;53.72;;;22.38;;
41059;SDS011;26811;53.160;8.202;2023-03-01T23:54:41;52.65;;;22.25;;
41059;SDS011;26811;53.160;8.202;2023-03-01T23:59:42;51.45;;;22.15;;
